sensor_id;sensor_type;location;lat;lon;timestamp;temperature;humidity
22716;DHT22;11525;51.152;4.456;2022-09-13T00:00:48;19.50;99.90
22716;DHT22;11525;51.152;4.456;2022-09-13T00:03:14;19.50;99.90
22716;DHT22;11525;51.152;4.456;2022-09-13T00:05:40;19.50;99.90
22716;DHT22;11525;51.152;4.456;2022-09-13T00:08:06;19.50;99.90
22716;DHT22;11525;51.152;4.456;2022-09-13T00:10:34;19.60;99.90
22716;DHT22;11525;51.152;4.456;2022-09-13T00:13:00;19.60;99.90
22716;DHT22;11525;51.152;4.456;2022-09-13T00:15:27;19.50;99.90
22716;DHT22;11525;51.152;4.456;2022-09-13T00:17:52;19.50;99.90
22716;DHT22;11525;51.152;4.456;2022-09-13T00:20:18;19.60;99.90
22716;DHT22;11525;51.152;4.456;2022-09-13T00:22:44;19.60;99.90
22716;DHT22;11525;51.152;4.456;2022-09-13T00:25:10;19.60;99.90
22716;DHT22;11525;51.152;4.456;2022-09-13T00:27:36;19.70;99.90
22716;DHT22;11525;51.152;4.456;2022-09-13T00:30:03;19.70;99.90
22716;DHT22;11525;51.152;4.456;2022-09-13T00:32:33;19.80;99.90
22716;DHT22;11525;51.152;4.456;2022-09-13T00:35:01;19.80;99.90
22716;DHT22;11525;51.152;4.456;2022-09-13T00:37:27;19.80;99.90
22716;DHT22;11525;51.152;4.456;2022-09-13T00:39:53;19.90;99.90
22716;DHT22;11525;51.152;4.456;2022-09-13T00:42:25;19.90;99.90
22716;DHT22;11525;51.152;4.456;2022-09-13T00:44:59;19.90;99.90
22716;DHT22;11525;51.152;4.456;2022-09-13T00:50:14;19.90;99.90
22716;DHT22;11525;51.152;4.456;2022-09-13T00:52:44;19.80;99.90
22716;DHT22;11525;51.152;4.456;2022-09-13T00:55:25;19.90;99.90
22716;DHT22;11525;51.152;4.456;2022-09-13T00:57:52;19.90;99.90
22716;DHT22;11525;51.152;4.456;2022-09-13T01:00:22;19.90;99.90
22716;DHT22;11525;51.152;4.456;2022-09-13T01:02:54;19.80;99.90
22716;DHT22;11525;51.152;4.456;2022-09-13T01:05:25;19.90;99.90
22716;DHT22;11525;51.152;4.456;2022-09-13T01:07:53;19.90;99.90
22716;DHT22;11525;51.152;4.456;2022-09-13T01:10:20;19.90;99.90
22716;DHT22;11525;51.152;4.456;2022-09-13T01:12:49;19.90;99.90
22716;DHT22;11525;51.152;4.456;2022-09-13T01:15:18;19.80;99.90
22716;DHT22;11525;51.152;4.456;2022-09-13T01:17:44;19.80;99.90
22716;DHT22;11525;51.152;4.456;2022-09-13T01:20:11;19.70;99.90
22716;DHT22;11525;51.152;4.456;2022-09-13T01:30:51;19.90;99.90
22716;DHT22;11525;51.152;4.456;2022-09-13T01:33:58;19.90;99.90
22716;DHT22;11525;51.152;4.456;2022-09-13T01:39:28;19.80;99.90
22716;DHT22;11525;51.152;4.456;2022-09-13T01:42:24;19.80;99.90
22716;DHT22;11525;51.152;4.456;2022-09-13T01:45:16;19.80;99.90
22716;DHT22;11525;51.152;4.456;2022-09-13T01:51:00;19.70;99.90
22716;DHT22;11525;51.152;4.456;2022-09-13T01:59:03;19.80;99.90
22716;DHT22;11525;51.152;4.456;2022-09-13T02:01:34;19.80;99.90
22716;DHT22;11525;51.152;4.456;2022-09-13T02:04:21;19.80;99.90
22716;DHT22;11525;51.152;4.456;2022-09-13T02:06:50;19.70;99.90
22716;DHT22;11525;51.152;4.456;2022-09-13T02:09:23;19.60;99.90
22716;DHT22;11525;51.152;4.456;2022-09-13T02:11:55;19.70;99.90
22716;DHT22;11525;51.152;4.456;2022-09-13T02:14:28;19.70;99.90
22716;DHT22;11525;51.152;4.456;2022-09-13T02:17:00;19.60;99.90
22716;DHT22;11525;51.152;4.456;2022-09-13T02:19:42;19.60;99.90
22716;DHT22;11525;51.152;4.456;2022-09-13T02:22:16;19.60;99.90
22716;DHT22;11525;51.152;4.456;2022-09-13T02:24:46;19.60;99.90
22716;DHT22;11525;51.152;4.456;2022-09-13T02:27:19;19.50;99.90
22716;DHT22;11525;51.152;4.456;2022-09-13T02:29:51;19.50;99.90
22716;DHT22;11525;51.152;4.456;2022-09-13T02:32:26;19.50;99.90
22716;DHT22;11525;51.152;4.456;2022-09-13T02:35:02;19.50;99.90
22716;DHT22;11525;51.152;4.456;2022-09-13T02:37:31;19.50;99.90
22716;DHT22;11525;51.152;4.456;2022-09-13T02:40:05;19.40;99.90
22716;DHT22;11525;51.152;4.456;2022-09-13T02:42:42;19.30;99.90
22716;DHT22;11525;51.152;4.456;2022-09-13T02:45:11;19.40;99.90
22716;DHT22;11525;51.152;4.456;2022-09-13T02:47:44;19.40;99.90
22716;DHT22;11525;51.152;4.456;2022-09-13T02:50:20;19.30;99.90
22716;DHT22;11525;51.152;4.456;2022-09-13T02:52:57;19.30;99.90
22716;DHT22;11525;51.152;4.456;2022-09-13T02:55:40;19.40;99.90
22716;DHT22;11525;51.152;4.456;2022-09-13T03:01:01;19.40;99.90
22716;DHT22;11525;51.152;4.456;2022-09-13T03:03:27;19.30;99.90
22716;DHT22;11525;51.152;4.456;2022-09-13T03:05:53;19.30;99.90
22716;DHT22;11525;51.152;4.456;2022-09-13T03:08:20;19.30;99.90
22716;DHT22;11525;51.152;4.456;2022-09-13T03:14:06;19.30;99.90
22716;DHT22;11525;51.152;4.456;2022-09-13T03:25:05;19.40;99.90
22716;DHT22;11525;51.152;4.456;2022-09-13T03:30:08;19.30;99.90
22716;DHT22;11525;51.152;4.456;2022-09-13T03:35:41;19.40;99.90
22716;DHT22;11525;51.152;4.456;2022-09-13T03:38:20;19.40;99.90
22716;DHT22;11525;51.152;4.456;2022-09-13T03:40:59;19.40;99.90
22716;DHT22;11525;51.152;4.456;2022-09-13T03:43:35;19.40;99.90
22716;DHT22;11525;51.152;4.456;2022-09-13T03:48:54;19.20;99.90
22716;DHT22;11525;51.152;4.456;2022-09-13T03:51:22;19.20;99.90
22716;DHT22;11525;51.152;4.456;2022-09-13T03:53:58;19.20;99.90
22716;DHT22;11525;51.152;4.456;2022-09-13T03:56:25;19.30;99.90
22716;DHT22;11525;51.152;4.456;2022-09-13T03:58:52;19.20;99.90
22716;DHT22;11525;51.152;4.456;2022-09-13T04:01:20;19.20;99.90
22716;DHT22;11525;51.152;4.456;2022-09-13T04:03:47;19.30;99.90
22716;DHT22;11525;51.152;4.456;2022-09-13T04:06:13;19.30;99.90
22716;DHT22;11525;51.152;4.456;2022-09-13T04:08:38;19.30;99.90
22716;DHT22;11525;51.152;4.456;2022-09-13T04:11:04;19.20;99.90
22716;DHT22;11525;51.152;4.456;2022-09-13T04:13:30;19.30;99.90
22716;DHT22;11525;51.152;4.456;2022-09-13T04:16:03;19.30;99.90
22716;DHT22;11525;51.152;4.456;2022-09-13T04:18:30;19.40;99.90
22716;DHT22;11525;51.152;4.456;2022-09-13T04:20:57;19.40;99.90
22716;DHT22;11525;51.152;4.456;2022-09-13T04:23:24;19.40;99.90
22716;DHT22;11525;51.152;4.456;2022-09-13T04:25:50;19.30;99.90
22716;DHT22;11525;51.152;4.456;2022-09-13T04:28:17;19.40;99.90
22716;DHT22;11525;51.152;4.456;2022-09-13T04:30:44;19.30;99.90
22716;DHT22;11525;51.152;4.456;2022-09-13T04:33:10;19.30;99.90
22716;DHT22;11525;51.152;4.456;2022-09-13T04:35:36;19.30;99.90
22716;DHT22;11525;51.152;4.456;2022-09-13T04:38:05;19.30;99.90
22716;DHT22;11525;51.152;4.456;2022-09-13T04:40:32;19.30;99.90
22716;DHT22;11525;51.152;4.456;2022-09-13T04:43:00;19.30;99.90
22716;DHT22;11525;51.152;4.456;2022-09-13T04:45:26;19.30;99.90
22716;DHT22;11525;51.152;4.456;2022-09-13T04:47:53;19.20;99.90
22716;DHT22;11525;51.152;4.456;2022-09-13T04:50:20;19.20;99.90
22716;DHT22;11525;51.152;4.456;2022-09-13T04:52:46;19.10;99.90
22716;DHT22;11525;51.152;4.456;2022-09-13T04:55:12;19.10;99.90
22716;DHT22;11525;51.152;4.456;2022-09-13T04:57:39;19.10;99.90
22716;DHT22;11525;51.152;4.456;2022-09-13T05:00:05;19.10;99.90
22716;DHT22;11525;51.152;4.456;2022-09-13T05:02:31;19.20;99.90
22716;DHT22;11525;51.152;4.456;2022-09-13T05:04:57;19.30;99.90
22716;DHT22;11525;51.152;4.456;2022-09-13T05:07:23;19.30;99.90
22716;DHT22;11525;51.152;4.456;2022-09-13T05:09:49;19.30;99.90
22716;DHT22;11525;51.152;4.456;2022-09-13T05:12:14;19.20;99.90
22716;DHT22;11525;51.152;4.456;2022-09-13T05:14:40;19.30;99.90
22716;DHT22;11525;51.152;4.456;2022-09-13T05:17:06;19.30;99.90
22716;DHT22;11525;51.152;4.456;2022-09-13T05:19:31;19.30;99.90
22716;DHT22;11525;51.152;4.456;2022-09-13T05:21:57;19.30;99.90
22716;DHT22;11525;51.152;4.456;2022-09-13T05:24:23;19.20;99.90
22716;DHT22;11525;51.152;4.456;2022-09-13T05:26:49;19.20;99.90
22716;DHT22;11525;51.152;4.456;2022-09-13T05:29:14;19.20;99.90
22716;DHT22;11525;51.152;4.456;2022-09-13T05:31:41;19.30;99.90
22716;DHT22;11525;51.152;4.456;2022-09-13T05:34:12;19.30;99.90
22716;DHT22;11525;51.152;4.456;2022-09-13T05:36:39;19.30;99.90
22716;DHT22;11525;51.152;4.456;2022-09-13T05:39:09;19.30;99.90
22716;DHT22;11525;51.152;4.456;2022-09-13T05:41:36;19.40;99.90
22716;DHT22;11525;51.152;4.456;2022-09-13T05:44:15;19.40;99.90
22716;DHT22;11525;51.152;4.456;2022-09-13T05:46:42;19.40;99.90
22716;DHT22;11525;51.152;4.456;2022-09-13T05:49:11;19.40;99.90
22716;DHT22;11525;51.152;4.456;2022-09-13T05:51:38;19.40;99.90
22716;DHT22;11525;51.152;4.456;2022-09-13T05:54:04;19.50;99.90
22716;DHT22;11525;51.152;4.456;2022-09-13T05:56:30;19.50;99.90
22716;DHT22;11525;51.152;4.456;2022-09-13T05:58:57;19.60;99.90
22716;DHT22;11525;51.152;4.456;2022-09-13T06:01:25;19.80;99.90
22716;DHT22;11525;51.152;4.456;2022-09-13T06:03:53;19.80;99.90
22716;DHT22;11525;51.152;4.456;2022-09-13T06:06:20;19.80;99.90
22716;DHT22;11525;51.152;4.456;2022-09-13T06:08:46;19.80;99.90
22716;DHT22;11525;51.152;4.456;2022-09-13T06:11:13;19.80;99.90
22716;DHT22;11525;51.152;4.456;2022-09-13T06:13:40;19.80;99.90
22716;DHT22;11525;51.152;4.456;2022-09-13T06:16:09;19.90;99.90
22716;DHT22;11525;51.152;4.456;2022-09-13T06:18:36;20.00;99.90
22716;DHT22;11525;51.152;4.456;2022-09-13T06:21:10;20.00;99.90
22716;DHT22;11525;51.152;4.456;2022-09-13T06:23:36;20.00;99.90
22716;DHT22;11525;51.152;4.456;2022-09-13T06:26:12;20.00;99.90
22716;DHT22;11525;51.152;4.456;2022-09-13T06:28:38;20.10;99.90
22716;DHT22;11525;51.152;4.456;2022-09-13T06:31:12;20.20;99.90
22716;DHT22;11525;51.152;4.456;2022-09-13T06:33:40;20.20;99.90
22716;DHT22;11525;51.152;4.456;2022-09-13T06:36:09;20.30;99.90
22716;DHT22;11525;51.152;4.456;2022-09-13T06:38:35;20.30;99.90
22716;DHT22;11525;51.152;4.456;2022-09-13T06:41:05;20.30;99.90
22716;DHT22;11525;51.152;4.456;2022-09-13T06:43:31;20.40;99.90
22716;DHT22;11525;51.152;4.456;2022-09-13T06:45:59;20.50;99.90
22716;DHT22;11525;51.152;4.456;2022-09-13T06:48:25;20.50;99.90
22716;DHT22;11525;51.152;4.456;2022-09-13T06:50:52;20.50;99.90
22716;DHT22;11525;51.152;4.456;2022-09-13T06:53:22;20.60;99.90
22716;DHT22;11525;51.152;4.456;2022-09-13T06:55:48;20.60;99.90
22716;DHT22;11525;51.152;4.456;2022-09-13T06:58:14;20.80;99.90
22716;DHT22;11525;51.152;4.456;2022-09-13T07:00:40;20.80;99.90
22716;DHT22;11525;51.152;4.456;2022-09-13T07:03:05;20.80;99.90
22716;DHT22;11525;51.152;4.456;2022-09-13T07:05:31;20.90;99.90
22716;DHT22;11525;51.152;4.456;2022-09-13T07:07:57;21.00;99.90
22716;DHT22;11525;51.152;4.456;2022-09-13T07:10:26;21.10;99.90
22716;DHT22;11525;51.152;4.456;2022-09-13T07:12:52;21.20;99.90
22716;DHT22;11525;51.152;4.456;2022-09-13T07:15:18;21.20;99.90
22716;DHT22;11525;51.152;4.456;2022-09-13T07:17:44;21.30;99.90
22716;DHT22;11525;51.152;4.456;2022-09-13T07:20:10;21.50;99.90
22716;DHT22;11525;51.152;4.456;2022-09-13T07:22:36;21.60;99.90
22716;DHT22;11525;51.152;4.456;2022-09-13T07:25:01;21.70;99.90
22716;DHT22;11525;51.152;4.456;2022-09-13T07:27:27;21.70;99.90
22716;DHT22;11525;51.152;4.456;2022-09-13T07:29:53;21.80;99.90
22716;DHT22;11525;51.152;4.456;2022-09-13T07:32:19;21.90;99.90
22716;DHT22;11525;51.152;4.456;2022-09-13T07:34:45;22.10;99.90
22716;DHT22;11525;51.152;4.456;2022-09-13T07:37:14;22.30;99.90
22716;DHT22;11525;51.152;4.456;2022-09-13T07:39:39;22.40;99.90
22716;DHT22;11525;51.152;4.456;2022-09-13T07:42:05;22.40;99.90
22716;DHT22;11525;51.152;4.456;2022-09-13T07:44:31;22.50;99.90
22716;DHT22;11525;51.152;4.456;2022-09-13T07:46:57;22.60;99.90
22716;DHT22;11525;51.152;4.456;2022-09-13T07:49:23;22.70;99.90
22716;DHT22;11525;51.152;4.456;2022-09-13T07:51:49;22.80;99.90
22716;DHT22;11525;51.152;4.456;2022-09-13T07:54:16;23.00;99.90
22716;DHT22;11525;51.152;4.456;2022-09-13T07:56:43;23.20;99.90
22716;DHT22;11525;51.152;4.456;2022-09-13T07:59:14;23.50;99.90
22716;DHT22;11525;51.152;4.456;2022-09-13T08:01:43;23.60;99.90
22716;DHT22;11525;51.152;4.456;2022-09-13T08:04:13;23.70;99.90
22716;DHT22;11525;51.152;4.456;2022-09-13T08:06:40;23.80;99.90
22716;DHT22;11525;51.152;4.456;2022-09-13T08:09:08;23.90;99.90
22716;DHT22;11525;51.152;4.456;2022-09-13T08:11:36;24.10;99.90
22716;DHT22;11525;51.152;4.456;2022-09-13T08:14:04;24.30;99.90
22716;DHT22;11525;51.152;4.456;2022-09-13T08:16:31;24.60;99.90
22716;DHT22;11525;51.152;4.456;2022-09-13T08:19:00;25.10;99.90
22716;DHT22;11525;51.152;4.456;2022-09-13T08:21:31;25.40;99.90
22716;DHT22;11525;51.152;4.456;2022-09-13T08:23:57;26.10;99.90
22716;DHT22;11525;51.152;4.456;2022-09-13T08:26:29;26.70;99.90
22716;DHT22;11525;51.152;4.456;2022-09-13T08:28:57;27.30;99.90
22716;DHT22;11525;51.152;4.456;2022-09-13T08:31:24;28.10;99.90
22716;DHT22;11525;51.152;4.456;2022-09-13T08:33:50;29.10;99.90
22716;DHT22;11525;51.152;4.456;2022-09-13T08:36:17;30.00;99.90
22716;DHT22;11525;51.152;4.456;2022-09-13T08:38:50;31.40;98.60
22716;DHT22;11525;51.152;4.456;2022-09-13T08:41:31;31.80;94.70
22716;DHT22;11525;51.152;4.456;2022-09-13T08:46:40;30.80;93.90
22716;DHT22;11525;51.152;4.456;2022-09-13T08:52:33;31.80;93.00
22716;DHT22;11525;51.152;4.456;2022-09-13T08:55:12;32.30;89.80
22716;DHT22;11525;51.152;4.456;2022-09-13T08:57:54;32.30;87.20
22716;DHT22;11525;51.152;4.456;2022-09-13T09:00:33;32.10;86.70
22716;DHT22;11525;51.152;4.456;2022-09-13T09:05:50;32.10;87.10
22716;DHT22;11525;51.152;4.456;2022-09-13T09:11:36;32.80;83.90
22716;DHT22;11525;51.152;4.456;2022-09-13T09:14:19;33.00;79.70
22716;DHT22;11525;51.152;4.456;2022-09-13T09:16:54;33.90;75.50
22716;DHT22;11525;51.152;4.456;2022-09-13T09:19:42;34.90;69.70
22716;DHT22;11525;51.152;4.456;2022-09-13T09:22:16;34.90;68.40
22716;DHT22;11525;51.152;4.456;2022-09-13T09:24:46;33.40;71.40
22716;DHT22;11525;51.152;4.456;2022-09-13T09:27:16;32.70;75.80
22716;DHT22;11525;51.152;4.456;2022-09-13T09:29:43;31.90;80.60
22716;DHT22;11525;51.152;4.456;2022-09-13T09:38:07;34.00;72.80
22716;DHT22;11525;51.152;4.456;2022-09-13T09:40:38;35.60;66.10
22716;DHT22;11525;51.152;4.456;2022-09-13T09:43:22;35.90;62.00
22716;DHT22;11525;51.152;4.456;2022-09-13T09:45:51;34.30;65.10
22716;DHT22;11525;51.152;4.456;2022-09-13T09:48:21;33.60;69.20
22716;DHT22;11525;51.152;4.456;2022-09-13T09:50:54;30.80;77.10
22716;DHT22;11525;51.152;4.456;2022-09-13T09:53:31;30.90;80.70
22716;DHT22;11525;51.152;4.456;2022-09-13T09:56:01;32.20;78.30
22716;DHT22;11525;51.152;4.456;2022-09-13T09:58:42;33.10;71.40
22716;DHT22;11525;51.152;4.456;2022-09-13T10:01:32;33.00;72.10
22716;DHT22;11525;51.152;4.456;2022-09-13T10:04:18;31.90;76.00
22716;DHT22;11525;51.152;4.456;2022-09-13T10:06:46;33.50;70.80
22716;DHT22;11525;51.152;4.456;2022-09-13T10:09:18;33.70;70.40
22716;DHT22;11525;51.152;4.456;2022-09-13T10:11:52;33.20;71.50
22716;DHT22;11525;51.152;4.456;2022-09-13T10:14:42;33.40;73.10
22716;DHT22;11525;51.152;4.456;2022-09-13T10:17:25;32.70;72.50
22716;DHT22;11525;51.152;4.456;2022-09-13T10:22:40;36.40;62.60
22716;DHT22;11525;51.152;4.456;2022-09-13T10:25:14;36.40;61.50
22716;DHT22;11525;51.152;4.456;2022-09-13T10:27:54;37.30;59.70
22716;DHT22;11525;51.152;4.456;2022-09-13T10:32:56;37.80;55.90
22716;DHT22;11525;51.152;4.456;2022-09-13T10:35:32;38.50;55.40
22716;DHT22;11525;51.152;4.456;2022-09-13T10:37:58;38.20;53.30
22716;DHT22;11525;51.152;4.456;2022-09-13T10:40:29;36.60;55.00
22716;DHT22;11525;51.152;4.456;2022-09-13T10:42:57;35.40;58.00
22716;DHT22;11525;51.152;4.456;2022-09-13T10:45:28;34.70;61.10
22716;DHT22;11525;51.152;4.456;2022-09-13T10:48:13;34.70;62.50
22716;DHT22;11525;51.152;4.456;2022-09-13T10:50:40;33.30;65.70
22716;DHT22;11525;51.152;4.456;2022-09-13T10:53:29;32.10;71.00
22716;DHT22;11525;51.152;4.456;2022-09-13T10:55:56;31.30;73.40
22716;DHT22;11525;51.152;4.456;2022-09-13T10:58:21;30.80;78.30
22716;DHT22;11525;51.152;4.456;2022-09-13T11:06:21;30.20;83.70
22716;DHT22;11525;51.152;4.456;2022-09-13T11:14:49;28.90;90.80
22716;DHT22;11525;51.152;4.456;2022-09-13T11:26:04;27.70;96.60
22716;DHT22;11525;51.152;4.456;2022-09-13T11:29:01;28.00;96.30
22716;DHT22;11525;51.152;4.456;2022-09-13T11:31:44;27.40;97.20
22716;DHT22;11525;51.152;4.456;2022-09-13T11:34:53;27.10;98.70
22716;DHT22;11525;51.152;4.456;2022-09-13T11:43:24;27.60;98.60
22716;DHT22;11525;51.152;4.456;2022-09-13T11:48:38;28.10;96.50
22716;DHT22;11525;51.152;4.456;2022-09-13T11:54:20;28.20;97.70
22716;DHT22;11525;51.152;4.456;2022-09-13T11:56:54;27.60;97.20
22716;DHT22;11525;51.152;4.456;2022-09-13T12:00:06;27.30;98.40
22716;DHT22;11525;51.152;4.456;2022-09-13T12:03:00;27.30;98.70
22716;DHT22;11525;51.152;4.456;2022-09-13T12:05:55;27.40;99.20
22716;DHT22;11525;51.152;4.456;2022-09-13T12:08:32;27.90;98.40
22716;DHT22;11525;51.152;4.456;2022-09-13T12:16:24;27.60;98.50
22716;DHT22;11525;51.152;4.456;2022-09-13T12:18:53;27.70;99.00
22716;DHT22;11525;51.152;4.456;2022-09-13T12:21:28;27.30;99.30
22716;DHT22;11525;51.152;4.456;2022-09-13T12:24:07;27.40;98.60
22716;DHT22;11525;51.152;4.456;2022-09-13T12:26:52;27.30;99.10
22716;DHT22;11525;51.152;4.456;2022-09-13T12:29:30;27.30;99.40
22716;DHT22;11525;51.152;4.456;2022-09-13T12:32:03;27.70;98.20
22716;DHT22;11525;51.152;4.456;2022-09-13T12:34:42;27.90;98.20
22716;DHT22;11525;51.152;4.456;2022-09-13T12:37:18;28.00;98.30
22716;DHT22;11525;51.152;4.456;2022-09-13T12:48:16;27.90;99.80
22716;DHT22;11525;51.152;4.456;2022-09-13T12:51:05;27.70;99.50
22716;DHT22;11525;51.152;4.456;2022-09-13T12:59:18;27.60;99.90
22716;DHT22;11525;51.152;4.456;2022-09-13T13:01:47;27.30;99.90
22716;DHT22;11525;51.152;4.456;2022-09-13T13:04:21;27.50;99.90
22716;DHT22;11525;51.152;4.456;2022-09-13T13:07:01;27.60;99.90
22716;DHT22;11525;51.152;4.456;2022-09-13T13:09:38;27.60;99.90
22716;DHT22;11525;51.152;4.456;2022-09-13T13:12:11;27.30;99.90
22716;DHT22;11525;51.152;4.456;2022-09-13T13:14:50;27.20;99.90
22716;DHT22;11525;51.152;4.456;2022-09-13T13:23:28;27.10;99.90
22716;DHT22;11525;51.152;4.456;2022-09-13T13:34:44;25.50;99.90
22716;DHT22;11525;51.152;4.456;2022-09-13T13:36:45;25.50;99.90
22716;DHT22;11525;51.152;4.456;2022-09-13T13:42:21;25.30;99.90
22716;DHT22;11525;51.152;4.456;2022-09-13T13:50:13;25.20;99.90
22716;DHT22;11525;51.152;4.456;2022-09-13T13:55:36;25.20;99.90
22716;DHT22;11525;51.152;4.456;2022-09-13T13:58:29;25.20;99.90
22716;DHT22;11525;51.152;4.456;2022-09-13T14:00:58;25.00;99.90
22716;DHT22;11525;51.152;4.456;2022-09-13T14:03:26;24.90;99.90
22716;DHT22;11525;51.152;4.456;2022-09-13T14:11:39;24.60;99.90
22716;DHT22;11525;51.152;4.456;2022-09-13T14:19:48;24.70;99.90
22716;DHT22;11525;51.152;4.456;2022-09-13T14:22:22;24.70;99.90
22716;DHT22;11525;51.152;4.456;2022-09-13T14:25:11;24.60;99.90
22716;DHT22;11525;51.152;4.456;2022-09-13T14:27:40;24.60;99.90
22716;DHT22;11525;51.152;4.456;2022-09-13T14:30:23;24.60;99.90
22716;DHT22;11525;51.152;4.456;2022-09-13T14:32:54;24.60;99.90
22716;DHT22;11525;51.152;4.456;2022-09-13T14:37:54;24.50;99.90
22716;DHT22;11525;51.152;4.456;2022-09-13T14:40:22;24.40;99.90
22716;DHT22;11525;51.152;4.456;2022-09-13T14:42:51;24.50;99.90
22716;DHT22;11525;51.152;4.456;2022-09-13T14:45:33;24.40;99.90
22716;DHT22;11525;51.152;4.456;2022-09-13T14:51:10;24.40;99.90
22716;DHT22;11525;51.152;4.456;2022-09-13T14:53:39;24.50;99.90
22716;DHT22;11525;51.152;4.456;2022-09-13T14:56:13;24.50;99.90
22716;DHT22;11525;51.152;4.456;2022-09-13T14:58:51;24.50;99.90
22716;DHT22;11525;51.152;4.456;2022-09-13T15:01:30;24.50;99.90
22716;DHT22;11525;51.152;4.456;2022-09-13T15:03:58;24.50;99.90
22716;DHT22;11525;51.152;4.456;2022-09-13T15:06:30;24.50;99.90
22716;DHT22;11525;51.152;4.456;2022-09-13T15:09:12;24.40;99.90
22716;DHT22;11525;51.152;4.456;2022-09-13T15:14:43;24.50;99.90
22716;DHT22;11525;51.152;4.456;2022-09-13T15:17:11;24.50;99.90
22716;DHT22;11525;51.152;4.456;2022-09-13T15:19:48;24.50;99.90
22716;DHT22;11525;51.152;4.456;2022-09-13T15:22:23;24.40;99.90
22716;DHT22;11525;51.152;4.456;2022-09-13T15:24:57;24.30;99.90
22716;DHT22;11525;51.152;4.456;2022-09-13T15:27:45;24.30;99.90
22716;DHT22;11525;51.152;4.456;2022-09-13T15:30:29;24.20;99.90
22716;DHT22;11525;51.152;4.456;2022-09-13T15:35:41;24.10;99.90
22716;DHT22;11525;51.152;4.456;2022-09-13T15:38:28;24.10;99.90
22716;DHT22;11525;51.152;4.456;2022-09-13T15:41:15;24.10;99.90
22716;DHT22;11525;51.152;4.456;2022-09-13T15:43:42;24.20;99.90
22716;DHT22;11525;51.152;4.456;2022-09-13T15:46:13;24.10;99.90
22716;DHT22;11525;51.152;4.456;2022-09-13T15:48:45;24.10;99.90
22716;DHT22;11525;51.152;4.456;2022-09-13T15:51:17;24.20;99.90
22716;DHT22;11525;51.152;4.456;2022-09-13T15:53:44;24.20;99.90
22716;DHT22;11525;51.152;4.456;2022-09-13T15:59:15;24.10;99.90
22716;DHT22;11525;51.152;4.456;2022-09-13T16:01:43;24.10;99.90
22716;DHT22;11525;51.152;4.456;2022-09-13T16:04:09;24.20;99.90
22716;DHT22;11525;51.152;4.456;2022-09-13T16:06:35;24.20;99.90
22716;DHT22;11525;51.152;4.456;2022-09-13T16:09:16;24.20;99.90
22716;DHT22;11525;51.152;4.456;2022-09-13T16:11:42;24.20;99.90
22716;DHT22;11525;51.152;4.456;2022-09-13T16:14:08;24.20;99.90
22716;DHT22;11525;51.152;4.456;2022-09-13T16:16:34;24.20;99.90
22716;DHT22;11525;51.152;4.456;2022-09-13T16:19:00;24.20;99.90
22716;DHT22;11525;51.152;4.456;2022-09-13T16:21:26;24.00;99.90
22716;DHT22;11525;51.152;4.456;2022-09-13T16:23:54;23.90;99.90
22716;DHT22;11525;51.152;4.456;2022-09-13T16:26:19;23.80;99.90
22716;DHT22;11525;51.152;4.456;2022-09-13T16:28:46;23.70;99.90
22716;DHT22;11525;51.152;4.456;2022-09-13T16:31:12;23.60;99.90
22716;DHT22;11525;51.152;4.456;2022-09-13T16:33:41;23.50;99.90
22716;DHT22;11525;51.152;4.456;2022-09-13T16:36:11;23.30;99.90
22716;DHT22;11525;51.152;4.456;2022-09-13T16:38:37;23.30;99.90
22716;DHT22;11525;51.152;4.456;2022-09-13T16:41:06;23.30;99.90
22716;DHT22;11525;51.152;4.456;2022-09-13T16:43:33;23.40;99.90
22716;DHT22;11525;51.152;4.456;2022-09-13T16:46:08;23.40;99.90
22716;DHT22;11525;51.152;4.456;2022-09-13T16:48:34;23.40;99.90
22716;DHT22;11525;51.152;4.456;2022-09-13T16:51:05;23.50;99.90
22716;DHT22;11525;51.152;4.456;2022-09-13T16:53:35;23.40;99.90
22716;DHT22;11525;51.152;4.456;2022-09-13T16:56:10;23.40;99.90
22716;DHT22;11525;51.152;4.456;2022-09-13T16:58:41;23.40;99.90
22716;DHT22;11525;51.152;4.456;2022-09-13T17:01:09;23.50;99.90
22716;DHT22;11525;51.152;4.456;2022-09-13T17:03:35;23.50;99.90
22716;DHT22;11525;51.152;4.456;2022-09-13T17:06:05;23.50;99.90
22716;DHT22;11525;51.152;4.456;2022-09-13T17:08:31;23.40;99.90
22716;DHT22;11525;51.152;4.456;2022-09-13T17:10:58;23.30;99.90
22716;DHT22;11525;51.152;4.456;2022-09-13T17:13:24;23.20;99.90
22716;DHT22;11525;51.152;4.456;2022-09-13T17:15:50;23.10;99.90
22716;DHT22;11525;51.152;4.456;2022-09-13T17:18:19;23.00;99.90
22716;DHT22;11525;51.152;4.456;2022-09-13T17:20:47;23.00;99.90
22716;DHT22;11525;51.152;4.456;2022-09-13T17:23:14;23.00;99.90
22716;DHT22;11525;51.152;4.456;2022-09-13T17:25:47;22.90;99.90
22716;DHT22;11525;51.152;4.456;2022-09-13T17:28:15;22.70;99.90
22716;DHT22;11525;51.152;4.456;2022-09-13T17:30:41;22.50;99.90
22716;DHT22;11525;51.152;4.456;2022-09-13T17:33:08;22.40;99.90
22716;DHT22;11525;51.152;4.456;2022-09-13T17:35:34;22.40;99.90
22716;DHT22;11525;51.152;4.456;2022-09-13T17:38:01;22.40;99.90
22716;DHT22;11525;51.152;4.456;2022-09-13T17:40:28;22.30;99.90
22716;DHT22;11525;51.152;4.456;2022-09-13T17:42:55;22.10;99.90
22716;DHT22;11525;51.152;4.456;2022-09-13T17:45:21;22.00;99.90
22716;DHT22;11525;51.152;4.456;2022-09-13T17:47:47;21.80;99.90
22716;DHT22;11525;51.152;4.456;2022-09-13T17:50:16;21.60;99.90
22716;DHT22;11525;51.152;4.456;2022-09-13T17:52:42;21.40;99.90
22716;DHT22;11525;51.152;4.456;2022-09-13T17:55:07;21.40;99.90
22716;DHT22;11525;51.152;4.456;2022-09-13T17:57:34;21.30;99.90
22716;DHT22;11525;51.152;4.456;2022-09-13T17:59:59;21.30;99.90
22716;DHT22;11525;51.152;4.456;2022-09-13T18:02:26;21.30;99.90
22716;DHT22;11525;51.152;4.456;2022-09-13T18:04:52;21.30;99.90
22716;DHT22;11525;51.152;4.456;2022-09-13T18:07:18;21.20;99.90
22716;DHT22;11525;51.152;4.456;2022-09-13T18:09:45;21.20;99.90
22716;DHT22;11525;51.152;4.456;2022-09-13T18:12:11;21.20;99.90
22716;DHT22;11525;51.152;4.456;2022-09-13T18:14:38;21.20;99.90
22716;DHT22;11525;51.152;4.456;2022-09-13T18:17:04;21.00;99.90
22716;DHT22;11525;51.152;4.456;2022-09-13T18:19:38;20.90;99.90
22716;DHT22;11525;51.152;4.456;2022-09-13T18:22:05;20.90;99.90
22716;DHT22;11525;51.152;4.456;2022-09-13T18:24:31;20.90;99.90
22716;DHT22;11525;51.152;4.456;2022-09-13T18:26:58;20.80;99.90
22716;DHT22;11525;51.152;4.456;2022-09-13T18:29:24;20.70;99.90
22716;DHT22;11525;51.152;4.456;2022-09-13T18:31:53;20.70;99.90
22716;DHT22;11525;51.152;4.456;2022-09-13T18:34:19;20.70;99.90
22716;DHT22;11525;51.152;4.456;2022-09-13T18:36:44;20.70;99.90
22716;DHT22;11525;51.152;4.456;2022-09-13T18:39:19;20.70;99.90
22716;DHT22;11525;51.152;4.456;2022-09-13T18:41:46;20.70;99.90
22716;DHT22;11525;51.152;4.456;2022-09-13T18:44:14;20.70;99.90